Nearby METAR Reports

 

LFRV - Vannes-Meucon, FRANCE
Distance from station: NE 28km
Mise jour: 30/09/2022 13:30
nuageux
nuageux
 Wind from SSO
Vent: SSO 17 km/h
Temprature: 16°C
Point de rose: 10°C
Humidit: 68%
Baromtre: 1013 hPa
Clouds: nuageux
Visibility: 10 km
Cloud details: partiellement nuageux 762 m
partiellement nuageux 945 m
nuageux 1219 m
2022/09/30 11:30 LFRV 301130Z AUTO 21009KT 160V240 9999 SCT025 SCT031 BKN040 16/10 Q1013
LFRZ - Saint - Nazaire / Montoir, FRANCE
Distance from station: SE 64km
Mise jour: 30/09/2022 13:30
Clair
Clair
 Wind from SSO
Vent: SSO 22 km/h
Temprature: 16°C
Point de rose: 11°C
Humidit: 72%
Baromtre: 1014 hPa
Rsum: Clair
Visibility: greater than 10 km
2022/09/30 11:30 LFRZ 301130Z AUTO 21012KT CAVOK 16/11 Q1014 NOSIG
 
LFRH - Lorient / Lann- Bihoué, FRANCE
Distance from station: NO 81km
Mise jour: 30/09/2022 13:30
nuageux
nuageux
 Wind from SO
Vent: SO 19 km/h
Temprature: 16°C
Point de rose: 12°C
Humidit: 77%
Baromtre: 1013 hPa
Clouds: nuageux
Visibility: 10 km
Cloud details: nuageux 518 m
nuageux 1097 m
nuageux 1433 m
2022/09/30 11:30 LFRH 301130Z AUTO 22010KT 180V240 9999 BKN017 BKN036 BKN047 16/12 Q1013 TEMPO BKN014 OVC080
LFRB - Brest - Guipavas, FRANCE
Distance from station: NO 200km
Mise jour: 30/09/2022 13:30
nuageux
nuageux
 Wind from SO
Vent: SO 24 km/h
Temprature: 15°C
Point de rose: 12°C
Humidit: 82%
Baromtre: 1012 hPa
Clouds: nuageux
Visibility: 10 km
Cloud details: Peu nuageux 305 m
nuageux 701 m
nuageux 2987 m
2022/09/30 11:30 LFRB 301130Z AUTO 22013KT 9999 FEW010 BKN023 BKN098 15/12 Q1012 BECMG 24015G30KT RA OVC012
 
LFPV - Villacoublay - Vélizy/, FRANCE
Distance from station: NE 450km
Mise jour: 30/09/2022 13:30
partiellement nuageux
partiellement nuageux
 Wind from SO
Vent: SO 13 km/h
Temprature: 15°C
Point de rose: 6°C
Humidit: 55%
Baromtre: 1013 hPa
Clouds: partiellement nuageux
Visibility: 10 km
Cloud details: partiellement nuageux 1189 m
partiellement nuageux 1433 m
2022/09/30 11:30 LFPV 301130Z AUTO 22007KT 190V260 9999 SCT039 SCT047 15/06 Q1013 NOSIG
LFRS - Nantes Atlantique, FRANCE
Distance from station: SE 106km
Mise jour: 30/09/2022 13:30
Peu nuageux
Peu nuageux
 Wind from SSO
Vent: SSO 13 km/h
Temprature: 17°C
Point de rose: 9°C
Humidit: 59%
Baromtre: 1014 hPa
Clouds: Peu nuageux
Visibility: 10 km
Cloud details: Peu nuageux 975 m
2022/09/30 11:30 LFRS 301130Z AUTO 21007KT 160V270 9999 FEW032 17/09 Q1014 NOSIG